»·PEaware :: SWA2222 KSAN-KLAS

SWA2222 :: KSAN-KLAS

FLIGHT INFORMATION

Flight Status: Arrived
Operator:
Southwest Airlines
More flights by this operator :: More flights under this callsign
Pilot: Jacob C. (16006)
Aircraft: BOEING 737-800
(B738)
More flights by this aircraft type
Origin: KSAN San Diego Intl-Lindbergh
United States
Destination: KLAS McCarran Intl
United States
More flights between these airports :: More routes between these airports
Route: +PADRZ1 CHKNN SEBBY YELAH MISEN KEPEC4
File this flight plan on PilotEdge
Remarks:
Altitude:
(Current/Filed)
29,000ft
Speed:
(Current/Filed)
468kts
Departed: 22-Jul-17 09:28 PM
Arrived: 22-Jul-17 10:36 PM
Distance/Time
Traveled:
225nm/1:08
Distance/Time
To Go:
Arrived

Flight Plot

Page will automatically refresh every two minutes.

Flight plan parsing failed; only flown route is shown


Map Options




Map Legend


Flown Route
Filed Route
Departure Airport
Arrival Airport
Navaid (VOR, NDB)
Fix

Horizontal Profiles

Position Reports

Time Latitude Longitude Heading Altitude Ground
Speed
22-Jul-17 20:20 32.733128 -117.196756 138 19ft 0kts
22-Jul-17 20:21 32.733128 -117.196756 138 19ft 0kts
22-Jul-17 20:22 32.733128 -117.196756 138 19ft 0kts
22-Jul-17 20:23 32.733128 -117.196756 138 19ft 0kts
22-Jul-17 20:24 32.733128 -117.196756 138 19ft 0kts
22-Jul-17 20:25 32.733128 -117.196756 138 19ft 0kts
22-Jul-17 20:26 32.733128 -117.196756 138 19ft 0kts
22-Jul-17 20:27 32.733128 -117.196756 138 19ft 0kts
22-Jul-17 20:28 32.733128 -117.196756 138 19ft 0kts
22-Jul-17 20:29 32.733128 -117.196756 138 19ft 0kts
22-Jul-17 20:30 32.733128 -117.196756 138 19ft 0kts
22-Jul-17 20:31 32.733128 -117.196756 138 19ft 0kts
22-Jul-17 20:32 32.733128 -117.196756 138 19ft 0kts
22-Jul-17 20:33 32.733128 -117.196756 138 19ft 0kts
22-Jul-17 20:34 32.733128 -117.196756 138 19ft 0kts
22-Jul-17 20:35 32.733128 -117.196756 138 19ft 0kts
22-Jul-17 20:36 32.733128 -117.196756 138 19ft 0kts
22-Jul-17 20:37 32.733128 -117.196756 138 19ft 0kts
22-Jul-17 20:38 32.733128 -117.196756 138 19ft 0kts
22-Jul-17 20:39 32.733128 -117.196756 138 19ft 0kts
22-Jul-17 20:40 32.733128 -117.196756 138 19ft 0kts
22-Jul-17 20:41 32.733128 -117.196756 138 19ft 0kts
22-Jul-17 20:42 32.733128 -117.196756 138 19ft 0kts
22-Jul-17 20:43 32.733128 -117.196756 138 19ft 0kts
22-Jul-17 20:44 32.733128 -117.196756 138 19ft 0kts
22-Jul-17 20:45 32.733128 -117.196756 138 19ft 0kts
22-Jul-17 20:46 32.733128 -117.196756 138 19ft 0kts
22-Jul-17 20:47 32.733128 -117.196756 138 19ft 0kts
22-Jul-17 20:48 32.733128 -117.196756 138 19ft 0kts
22-Jul-17 20:49 32.733128 -117.196756 138 19ft 0kts
22-Jul-17 20:50 32.733128 -117.196756 138 19ft 0kts
22-Jul-17 20:51 32.733128 -117.196756 138 19ft 0kts
22-Jul-17 20:52 32.733128 -117.196756 138 19ft 0kts
22-Jul-17 20:53 32.733128 -117.196756 138 19ft 0kts
22-Jul-17 20:54 32.733128 -117.196756 138 19ft 0kts
22-Jul-17 20:55 32.733128 -117.196756 138 19ft 0kts
22-Jul-17 20:56 32.733128 -117.196756 138 19ft 0kts
22-Jul-17 20:57 32.733128 -117.196756 138 19ft 0kts
22-Jul-17 20:58 32.733128 -117.196756 138 19ft 0kts
22-Jul-17 20:59 32.733128 -117.196756 138 19ft 0kts
22-Jul-17 21:00 32.733128 -117.196756 138 19ft 0kts
22-Jul-17 21:01 32.733128 -117.196756 138 19ft 0kts
22-Jul-17 21:02 32.733128 -117.196756 138 19ft 0kts
22-Jul-17 21:03 32.733128 -117.196756 138 19ft 0kts
22-Jul-17 21:04 32.733128 -117.196756 138 19ft 0kts
22-Jul-17 21:05 32.733128 -117.196756 138 19ft 0kts
22-Jul-17 21:06 32.733128 -117.196756 138 19ft 0kts
22-Jul-17 21:07 32.733128 -117.196756 138 19ft 0kts
22-Jul-17 21:08 32.733128 -117.196756 138 19ft 0kts
22-Jul-17 21:09 32.733128 -117.196756 138 19ft 0kts
22-Jul-17 21:10 32.733128 -117.196756 138 19ft 0kts
22-Jul-17 21:11 32.733128 -117.196756 138 19ft 0kts
22-Jul-17 21:12 32.733128 -117.196756 138 19ft 0kts
22-Jul-17 21:13 32.733128 -117.196756 138 19ft 0kts
22-Jul-17 21:14 32.733128 -117.196756 138 19ft 0kts
22-Jul-17 21:15 32.733128 -117.196756 138 19ft 0kts
22-Jul-17 21:16 32.733219 -117.196851 138 19ft 2kts
22-Jul-17 21:17 32.733569 -117.197088 200 20ft 1kts
22-Jul-17 21:18 32.734011 -117.196927 174 20ft 2kts
22-Jul-17 21:19 32.734359 -117.197249 108 20ft 1kts
22-Jul-17 21:20 32.734367 -117.197277 106 20ft 0kts
22-Jul-17 21:21 32.734367 -117.197276 106 20ft 0kts
22-Jul-17 21:22 32.734367 -117.197276 106 20ft 0kts
22-Jul-17 21:23 32.733422 -117.193459 106 20ft 28kts
22-Jul-17 21:24 32.731577 -117.185777 105 20ft 15kts
22-Jul-17 21:25 32.730405 -117.180922 107 19ft 28kts
22-Jul-17 21:26 32.729512 -117.176861 79 22ft 0kts
22-Jul-17 21:27 32.729512 -117.176861 79 22ft 0kts
22-Jul-17 21:28 32.729512 -117.176861 79 22ft 0kts
22-Jul-17 21:29 32.729512 -117.176861 79 22ft 0kts
22-Jul-17 21:30 32.729512 -117.176861 79 22ft 0kts
22-Jul-17 21:31 32.731311 -117.180680 286 20ft 92kts
22-Jul-17 21:32 32.752727 -117.235625 302 1812ft 239kts
22-Jul-17 21:33 32.784573 -117.292140 302 3701ft 265kts
22-Jul-17 21:34 32.825973 -117.359285 306 6119ft 279kts
22-Jul-17 21:35 32.871432 -117.429823 307 9006ft 269kts
22-Jul-17 21:36 32.916696 -117.500189 307 10633ft 327kts
22-Jul-17 21:37 32.973231 -117.588245 307 13321ft 350kts
22-Jul-17 21:38 33.027276 -117.672623 307 15773ft 368kts
22-Jul-17 21:39 33.093313 -117.759045 319 18315ft 384kts
22-Jul-17 21:40 33.160341 -117.827661 319 20192ft 397kts
22-Jul-17 21:41 33.239583 -117.906446 320 22143ft 410kts
22-Jul-17 21:42 33.325966 -117.990789 320 24011ft 422kts
22-Jul-17 21:43 33.414441 -118.077423 319 25707ft 433kts
22-Jul-17 21:44 33.512478 -118.134383 357 27358ft 437kts
22-Jul-17 21:45 33.623263 -118.087879 30 28913ft 433kts
22-Jul-17 21:46 33.729640 -118.017271 30 28949ft 460kts
22-Jul-17 21:47 33.844230 -117.941004 30 28947ft 485kts
22-Jul-17 21:48 33.954038 -117.867748 30 28943ft 488kts
22-Jul-17 21:49 34.063541 -117.794345 32 28956ft 488kts
22-Jul-17 21:50 34.148565 -117.690189 52 28949ft 483kts
22-Jul-17 21:51 34.228032 -117.574584 52 28934ft 482kts
22-Jul-17 21:52 34.309974 -117.454291 52 28966ft 483kts
22-Jul-17 21:53 34.385161 -117.343632 53 29004ft 484kts
22-Jul-17 21:54 34.457219 -117.237253 53 28994ft 484kts
22-Jul-17 21:55 34.523331 -117.139051 53 29000ft 484kts
22-Jul-17 21:56 34.589406 -117.040985 53 28983ft 484kts
22-Jul-17 21:57 34.654276 -116.944244 52 28929ft 483kts
22-Jul-17 21:58 34.717270 -116.850089 53 28883ft 483kts
22-Jul-17 21:59 34.785306 -116.748288 53 27737ft 453kts
22-Jul-17 22:00 34.838740 -116.667976 53 26328ft 415kts
22-Jul-17 22:01 34.925955 -116.575467 40 25883ft 426kts
22-Jul-17 22:02 35.018321 -116.485583 39 25732ft 436kts
22-Jul-17 22:03 35.097958 -116.407760 43 23974ft 418kts
22-Jul-17 22:04 35.164019 -116.326581 47 23886ft 419kts
22-Jul-17 22:05 35.244669 -116.225549 48 23369ft 421kts
22-Jul-17 22:06 35.321630 -116.128791 48 21513ft 395kts
22-Jul-17 22:07 35.387859 -116.045235 48 19918ft 388kts
22-Jul-17 22:08 35.451187 -115.965160 48 18391ft 376kts
22-Jul-17 22:09 35.520346 -115.877493 47 16818ft 365kts
22-Jul-17 22:10 35.583755 -115.796903 47 15259ft 356kts
22-Jul-17 22:11 35.645327 -115.718482 47 13750ft 333kts
22-Jul-17 22:12 35.699537 -115.649298 47 13022ft 306kts
22-Jul-17 22:13 35.763026 -115.581880 19 13022ft 315kts
22-Jul-17 22:14 35.845807 -115.571380 4 13018ft 317kts
22-Jul-17 22:15 35.930614 -115.565401 10 12987ft 316kts
22-Jul-17 22:16 35.987038 -115.502434 65 12888ft 312kts
22-Jul-17 22:17 36.011612 -115.433412 68 11829ft 294kts
22-Jul-17 22:18 36.027966 -115.354144 93 11022ft 270kts
22-Jul-17 22:19 36.023055 -115.269528 95 10034ft 265kts
22-Jul-17 22:20 36.017500 -115.188535 95 9422ft 273kts
22-Jul-17 22:21 36.012820 -115.118613 95 8505ft 213kts
22-Jul-17 22:22 36.008858 -115.057119 94 8035ft 201kts
22-Jul-17 22:23 36.005168 -114.994883 93 8026ft 202kts
22-Jul-17 22:24 36.001421 -114.932210 93 8026ft 202kts
22-Jul-17 22:25 35.997539 -114.867810 93 8027ft 202kts
22-Jul-17 22:26 35.993855 -114.808861 94 8027ft 202kts
22-Jul-17 22:27 35.990125 -114.748807 85 7988ft 181kts
22-Jul-17 22:28 36.024838 -114.725314 355 8049ft 169kts
22-Jul-17 22:29 36.067182 -114.738959 316 6632ft 178kts
22-Jul-17 22:30 36.073300 -114.796209 269 5475ft 159kts
22-Jul-17 22:31 36.073360 -114.846601 270 5053ft 176kts
22-Jul-17 22:32 36.073461 -114.894310 270 4454ft 147kts
22-Jul-17 22:33 36.073548 -114.942185 270 3957ft 149kts
22-Jul-17 22:34 36.073612 -114.988941 270 3801ft 148kts
22-Jul-17 22:35 36.073640 -115.031984 270 3593ft 150kts
22-Jul-17 22:36 36.073658 -115.078732 270 2903ft 146kts
22-Jul-17 22:37 36.073636 -115.126458 269 2189ft 150kts
22-Jul-17 22:38 36.073686 -115.147305 275 2119ft 42kts
22-Jul-17 22:39 36.074742 -115.150587 301 2119ft 0kts
22-Jul-17 22:40 36.074742 -115.150587 301 2119ft 0kts
22-Jul-17 22:41 36.074742 -115.150587 301 2119ft 0kts
22-Jul-17 22:42 36.074742 -115.150587 301 2119ft 0kts
22-Jul-17 22:43 36.077712 -115.152552 32 2119ft 13kts
22-Jul-17 22:44 36.080435 -115.151122 359 2119ft 10kts
22-Jul-17 22:45 36.082006 -115.151086 13 2119ft 2kts
22-Jul-17 22:46 36.082209 -115.151026 13 2119ft 0kts

Navigation Log

Ident Type
Flight plan parsing failed, navigation log unavailable